createdAt,value
2023-01-07T00:03:46.483Z,50.2
2023-01-07T00:08:49.153Z,50.2
2023-01-07T00:13:51.347Z,50.1
2023-01-07T00:18:51.179Z,50.1
2023-01-07T00:23:51.067Z,50
2023-01-07T00:28:51.289Z,49.9
2023-01-07T00:33:51.505Z,50
2023-01-07T00:38:51.527Z,50.1
2023-01-07T00:43:51.564Z,49.9
2023-01-07T00:48:51.635Z,50
2023-01-07T00:53:51.896Z,50.1
2023-01-07T00:58:51.965Z,50
2023-01-07T01:03:52.020Z,50
2023-01-07T01:08:52.161Z,50
2023-01-07T01:13:52.425Z,49.9
2023-01-07T01:18:52.349Z,49.8
2023-01-07T01:23:52.356Z,49.9
2023-01-07T01:28:52.376Z,49.9
2023-01-07T01:33:52.465Z,49.8
2023-01-07T01:38:52.592Z,49.9
2023-01-07T01:43:52.911Z,49.8
2023-01-07T01:48:52.858Z,49.9
2023-01-07T01:53:53.916Z,49.7
2023-01-07T01:58:53.608Z,49.7
2023-01-07T02:03:53.542Z,49.9
2023-01-07T02:08:53.622Z,49.7
2023-01-07T02:13:53.935Z,49.8
2023-01-07T02:18:54.004Z,49.8
2023-01-07T02:23:54.150Z,49.7
2023-01-07T02:28:54.252Z,49.8
2023-01-07T02:33:54.123Z,49.8
2023-01-07T02:38:54.227Z,49.8
2023-01-07T02:43:54.100Z,50
2023-01-07T02:48:54.274Z,49.7
2023-01-07T02:53:57.268Z,49.9
2023-01-07T02:58:56.691Z,49.7
2023-01-07T03:03:56.851Z,49.8
2023-01-07T03:08:56.873Z,49.7
2023-01-07T03:13:56.888Z,49.6
2023-01-07T03:18:56.890Z,49.6
2023-01-07T03:23:57.094Z,49.6
2023-01-07T03:28:57.092Z,49.7
2023-01-07T03:33:57.296Z,49.7
2023-01-07T03:38:57.417Z,49.6
2023-01-07T03:43:57.658Z,49.6
2023-01-07T03:48:57.757Z,49.7
2023-01-07T03:53:57.855Z,49.8
2023-01-07T03:59:00.876Z,49.5
2023-01-07T04:04:03.058Z,49.7
2023-01-07T04:09:00.442Z,49.6
2023-01-07T04:14:00.340Z,49.6
2023-01-07T04:19:00.366Z,49.7
2023-01-07T04:24:00.386Z,49.7
2023-01-07T04:29:00.506Z,49.6
2023-01-07T04:34:00.754Z,49.5
2023-01-07T04:39:00.651Z,49.5
2023-01-07T04:44:03.668Z,49.5
2023-01-07T04:49:03.008Z,49.7
2023-01-07T04:54:02.805Z,49.5
2023-01-07T04:59:02.774Z,49.5
2023-01-07T05:04:03.084Z,49.6
2023-01-07T05:09:03.246Z,49.6
2023-01-07T05:14:03.331Z,49.5
2023-01-07T05:19:03.499Z,49.6
2023-01-07T05:24:03.555Z,49.4
2023-01-07T05:29:03.838Z,49.5
2023-01-07T05:34:04.014Z,49.8
2023-01-07T05:39:03.649Z,50
2023-01-07T05:44:03.958Z,49.9
2023-01-07T05:49:04.119Z,49.8
2023-01-07T05:54:07.118Z,50
2023-01-07T05:59:06.872Z,49.9
2023-01-07T06:04:08.717Z,50
2023-01-07T06:09:09.508Z,49.9
2023-01-07T06:14:09.436Z,49.9
2023-01-07T06:19:09.611Z,49.8
2023-01-07T06:24:09.766Z,49.7
2023-01-07T06:29:09.897Z,49.5
2023-01-07T06:34:10.064Z,49.6
2023-01-07T06:39:10.138Z,49.5
2023-01-07T06:44:10.575Z,49.2
2023-01-07T06:49:10.681Z,49.2
2023-01-07T06:54:10.954Z,48.9
2023-01-07T06:59:11.171Z,48.6
2023-01-07T07:04:11.565Z,48.7
2023-01-07T07:09:14.510Z,48.6
2023-01-07T07:14:14.128Z,48.6
2023-01-07T07:19:14.487Z,48.6
2023-01-07T07:24:14.369Z,48.5
2023-01-07T07:29:14.221Z,48.5
2023-01-07T07:34:14.148Z,48.5
2023-01-07T07:39:14.385Z,48.5
2023-01-07T07:44:14.456Z,48.5
2023-01-07T07:49:17.078Z,48.4
2023-01-07T07:54:16.988Z,48.3
2023-01-07T07:59:17.278Z,48.4
2023-01-07T08:04:20.085Z,48.3
2023-01-07T08:09:19.861Z,48.2
2023-01-07T08:14:20.016Z,48.3
2023-01-07T08:19:20.081Z,48.1
2023-01-07T08:24:20.175Z,48
2023-01-07T08:29:20.434Z,48
2023-01-07T08:34:20.507Z,48.1
2023-01-07T08:39:20.722Z,48.1
2023-01-07T08:44:20.806Z,48.3
2023-01-07T08:49:21.925Z,48.2
2023-01-07T08:54:21.704Z,48.3
2023-01-07T08:59:22.022Z,48.3
2023-01-07T09:04:22.070Z,48.2
2023-01-07T09:09:26.304Z,48.4
2023-01-07T09:14:25.722Z,48.1
2023-01-07T09:19:28.518Z,48.1
2023-01-07T09:24:31.003Z,48.3
2023-01-07T09:29:33.147Z,48
2023-01-07T09:34:33.499Z,48.3
2023-01-07T09:39:33.659Z,48.4
2023-01-07T09:44:33.931Z,48.4
2023-01-07T09:49:38.850Z,48.6
2023-01-07T09:54:38.363Z,48.5
2023-01-07T09:59:38.190Z,48.5
2023-01-07T10:04:40.864Z,48.6
2023-01-07T10:09:40.099Z,48.5
2023-01-07T10:14:40.235Z,48.6
2023-01-07T10:19:40.208Z,48.6
2023-01-07T10:24:40.456Z,48.8
2023-01-07T10:29:40.659Z,48.7
2023-01-07T10:34:40.677Z,48.6
2023-01-07T10:39:40.698Z,48.6
2023-01-07T10:44:40.177Z,48.7
2023-01-07T10:49:40.269Z,48.7
2023-01-07T10:54:40.407Z,48.7
2023-01-07T10:59:40.594Z,48.6
2023-01-07T11:04:41.037Z,48.6
2023-01-07T11:09:41.112Z,48.3
2023-01-07T11:14:40.973Z,48.2
2023-01-07T11:19:40.351Z,48.3
2023-01-07T11:24:41.339Z,48.2
2023-01-07T11:29:41.600Z,48.1
2023-01-07T11:34:41.391Z,48.2
2023-01-07T11:39:41.250Z,48.2
2023-01-07T11:44:41.338Z,48.3
2023-01-07T11:49:41.337Z,48.1
2023-01-07T11:54:41.370Z,48.2
2023-01-07T11:59:41.003Z,48
2023-01-07T12:04:41.079Z,48.2
2023-01-07T12:09:40.240Z,48
2023-01-07T12:14:40.201Z,48.1
2023-01-07T12:19:40.246Z,48.5
2023-01-07T12:24:40.313Z,48.5
2023-01-07T12:29:40.502Z,48.5
2023-01-07T12:34:40.484Z,48.3
2023-01-07T12:39:40.688Z,48.3
2023-01-07T12:44:40.641Z,48.3
2023-01-07T12:49:40.838Z,48.3
2023-01-07T12:54:40.857Z,48.2
2023-01-07T12:59:45.325Z,48.2
2023-01-07T13:04:40.995Z,48.3
2023-01-07T13:09:41.182Z,48.3
2023-01-07T13:14:40.958Z,48.2
2023-01-07T13:19:40.934Z,48.2
2023-01-07T13:24:55.269Z,48.2
2023-01-07T13:29:41.397Z,48
2023-01-07T13:34:40.739Z,48.2
2023-01-07T13:39:40.839Z,48.2
2023-01-07T13:44:41.048Z,48.1
2023-01-07T13:49:41.094Z,48.4
2023-01-07T13:54:42.286Z,48.3
2023-01-07T13:59:41.907Z,48.3
2023-01-07T14:04:44.739Z,48.4
2023-01-07T14:09:46.807Z,48.4
2023-01-07T14:14:49.125Z,48.2
2023-01-07T14:19:48.878Z,48.3
2023-01-07T14:24:48.852Z,48.5
2023-01-07T14:29:54.246Z,48.4
2023-01-07T14:34:51.264Z,48.3
2023-01-07T14:39:54.135Z,48.2
2023-01-07T14:44:53.789Z,48.3
2023-01-07T14:49:53.764Z,48.2
2023-01-07T14:54:53.983Z,48.3
2023-01-07T14:59:54.161Z,48.2
2023-01-07T15:04:54.386Z,48.3
2023-01-07T15:09:55.845Z,48.3
2023-01-07T15:14:55.267Z,48.2
2023-01-07T15:19:55.647Z,48.2
2023-01-07T15:24:55.610Z,48.2
2023-01-07T15:29:58.485Z,48.2
2023-01-07T15:34:58.253Z,48.3
2023-01-07T15:40:00.976Z,48.2
2023-01-07T15:45:00.838Z,48.2
2023-01-07T15:50:03.515Z,48.1
2023-01-07T15:55:03.009Z,48.2
2023-01-07T16:00:03.090Z,48
2023-01-07T16:05:03.096Z,48.1
2023-01-07T16:10:03.233Z,48.1
2023-01-07T16:15:05.003Z,48.1
2023-01-07T16:20:03.384Z,48.3
2023-01-07T16:25:03.328Z,48.2
2023-01-07T16:30:03.401Z,48.1
2023-01-07T16:35:03.697Z,48.1
2023-01-07T16:40:03.885Z,48.1
2023-01-07T16:45:03.982Z,48
2023-01-07T16:50:04.330Z,48
2023-01-07T16:55:04.486Z,48
2023-01-07T17:00:07.577Z,48.1
2023-01-07T17:05:07.335Z,48
2023-01-07T17:10:07.368Z,48.1
2023-01-07T17:15:07.589Z,47.9
2023-01-07T17:20:07.679Z,47.9
2023-01-07T17:25:07.810Z,47.9
2023-01-07T17:30:10.593Z,48
2023-01-07T17:35:10.166Z,47.9
2023-01-07T17:40:10.586Z,48
2023-01-07T17:45:13.386Z,47.9
2023-01-07T17:50:12.812Z,47.9
2023-01-07T17:55:14.991Z,48
2023-01-07T18:00:17.611Z,48.1
2023-01-07T18:05:17.382Z,48.3
2023-01-07T18:10:17.433Z,48.3
2023-01-07T18:15:17.302Z,48.2
2023-01-07T18:20:17.545Z,48.2
2023-01-07T18:25:17.628Z,48.4
2023-01-07T18:30:17.492Z,48.3
2023-01-07T18:35:17.444Z,48.7
2023-01-07T18:40:20.312Z,48.8
2023-01-07T18:45:22.661Z,48.8
2023-01-07T18:50:25.002Z,48.8
2023-01-07T18:55:24.731Z,49.1
2023-01-07T19:00:24.746Z,49
2023-01-07T19:05:24.555Z,49
2023-01-07T19:10:24.632Z,49.3
2023-01-07T19:15:24.686Z,49.4
2023-01-07T19:20:24.864Z,49.3
2023-01-07T19:25:26.654Z,49.1
2023-01-07T19:30:26.544Z,49.1
2023-01-07T19:35:29.470Z,49.3
2023-01-07T19:40:28.798Z,49.2
2023-01-07T19:45:28.781Z,49.1
2023-01-07T19:50:28.888Z,49.3
2023-01-07T19:55:31.833Z,49.1
2023-01-07T20:00:31.358Z,49.2
2023-01-07T20:05:31.374Z,49.3
2023-01-07T20:10:31.309Z,49.2
2023-01-07T20:15:31.302Z,49.3
2023-01-07T20:20:31.363Z,49.3
2023-01-07T20:25:31.627Z,49.3
2023-01-07T20:30:31.705Z,49.2
2023-01-07T20:35:31.949Z,49.1
2023-01-07T20:40:32.159Z,49.2
2023-01-07T20:45:32.193Z,49
2023-01-07T20:50:32.263Z,49.2
2023-01-07T20:55:32.358Z,49.1
2023-01-07T21:00:34.967Z,49.1
2023-01-07T21:05:34.577Z,49.2
2023-01-07T21:10:37.423Z,49.3
2023-01-07T21:15:37.039Z,49.1
2023-01-07T21:20:37.197Z,49.3
2023-01-07T21:25:37.239Z,49.2
2023-01-07T21:30:38.621Z,49.2
2023-01-07T21:35:38.214Z,49.3
2023-01-07T21:40:40.771Z,49.2
2023-01-07T21:45:40.360Z,49.3
2023-01-07T21:50:40.482Z,49.3
2023-01-07T21:55:40.576Z,49.2
2023-01-07T22:00:40.731Z,49.3
2023-01-07T22:05:40.889Z,49.2
2023-01-07T22:10:41.023Z,49.1
2023-01-07T22:15:43.926Z,49.3
2023-01-07T22:20:43.626Z,49.1
2023-01-07T22:25:43.842Z,49.2
2023-01-07T22:30:43.826Z,49.3
2023-01-07T22:35:44.020Z,49.1
2023-01-07T22:40:43.996Z,49.1
2023-01-07T22:45:44.463Z,49.2
2023-01-07T22:50:44.603Z,49
2023-01-07T22:55:44.967Z,49.2
2023-01-07T23:00:44.868Z,49
2023-01-07T23:05:45.181Z,49.1
2023-01-07T23:10:45.253Z,48.9
2023-01-07T23:15:45.421Z,49
2023-01-07T23:20:45.397Z,48.9
2023-01-07T23:25:48.349Z,49
2023-01-07T23:30:47.831Z,49.2
2023-01-07T23:35:47.909Z,48.9
2023-01-07T23:40:48.079Z,49
2023-01-07T23:45:48.597Z,49
2023-01-07T23:50:48.484Z,49
2023-01-07T23:55:51.084Z,49
